Enfidha, Tunisia
Current Conditions -  °F | °C
As of 1:00 PM on Sunday 25 Jan 2015 (Local Time) from DTNH Reporting Station
Clear Clear  
Wind Chill: 57°   Ceiling: Unl
Heat Index: 57°   Visibility: 4mi
Dew Point: 30°   Wind: 18mph
Humidity: 36%   Direction: 240°WSW
Pressure: 29.85"   Gusts: NA
Location:  36.14°N, 10.38°E
Report Text: DTNH 251200Z AUTO 24016KT 7000NDV NCD 14/M01 Q1011
Loading
Personal Weather Stations






























Interactive Weather Map New forecast layout! Learn more

10-Day Weather Forecast

Advertisements
Track Severe Weather on mobile